Share

Sandnessjøen, Norge

22:26:CEST den 23. april 2014 (GMT +0200)
Stokka (ENST) H.o.h 56 ft | 65.96 °N, 12.47 °E | Change Station

Current weather conditions updated 6 minutes ago

Clear
Klart
39 °F
Feels Like 37 °F
N
4
Vind Variabel Vind from Variabel
Soloppgang 4:59 AM
Solnedgang 9:19 PM
Månen Minkende sigd

Tomorrow is forecast to be Cooler than today.

Lufttrykk 30.45 tommer
Sikt -9999.0 eng. mil
Skyet
Nedkjølingseffekt 37 °F
Duggpunkt 23 °F
Fuktighet 52%
Regn 0.00 tommer
Snødybde Not available.
UV Not available.
Pollen Not available.
Luftkvalitet Not available.
Flu Activity Not available.
METAR ENST 232020Z VRB03KT CAVOK 04/M05 Q1031 RMK WIND 300FT 02002KT

More Conditions Fewer Conditions

Lufttrykk 30.45 tommer
Sikt -9999.0 eng. mil
Skyet
Nedkjølingseffekt 37 °F
Duggpunkt 23 °F
Fuktighet 52%
Regn 0.00 tommer
Snødybde Not available.
UV Not available.
Pollen Not available.
Luftkvalitet Not available.
Flu Activity Not available.
METAR ENST 232020Z VRB03KT CAVOK 04/M05 Q1031 RMK WIND 300FT 02002KT

More Conditions Fewer Conditions

10-Day Weather Forecast

Almanac

Astronomi

Apr. 23, 2014 Oppgang Nedgang
Virkelig tid 04:59 CEST 21:19 CEST
Tussmørke 03:51 CEST 22:29 CEST
Nautisk skumring 01:41 CEST 00:35 CEST
Astronomisk skumring Sun does not rise Sun does not rise
Månen 03:56 CEST 12:38 CEST
Lengde av synlig lys 18h 38m
Dagens lengde
16h 19m
Tomorrow will be 7m 28s longer.
Minkende sigd, 33% of the Moon is Illuminated
I dag
Minkende sigd
Apr 29
Ny
May 6
Første kvarter
May 14
Fullmåne
May 21
Siste kvarter

Dagens maks og min

Country Highs Country Lows

Community

  • Stunning Sunrise
    Stunning Sunrise
  • spring flowers
    spring flowers
  • Earth Day Spectrum Ove' Blue
    Earth Day Spectrum Ove' Blue
  • BARN B&W
    BARN B&W
  • April Sunset
    April Sunset

WunderPhotos

Upload Photos

1,704,402 photos uploaded!

WunderBlogs® & News

Nearby

Snødybde

Not available.

Coastal Water Temperatures

Sted Temperatur
Ingen stasjoner raporterer

Earthquake Activity

By Distance Mag. Time & Date
No recent earthquake activity has been reported nearby.
Minimum magnitude displayed is 2.5.

Nearby Weather Stations

Stasjonens lokasjon Temp. Nedkjølingseffekt Duggpunkt Fuktighet Vind Precip. H.o.h Oppdatert Type
Leinesodden, Leland 45.0 °F 37 °F 28 °F 51% Øst  i  20.5 mph 0.00 tommer / hr 30 ft 10:26 PM CEST Rapid Fire
Osodden, Vevelstad 42.8 °F 39 °F 13 °F 29% Øst  i  6.7 mph 0.00 tommer / hr 89 ft 10:26 PM CEST Rapid Fire
Randalen, Leirfjord 35.4 °F 35 °F 3 °F 25% NNØ  i  2.7 mph - / hr 525 ft 10:26 PM CEST Rapid Fire
Mosjoen, Kulstaddalen, Mosjoen 35.5 °F 36 °F 24 °F 63% NNV  i  1.0 mph 0.00 tommer / hr 262 ft 10:24 PM CEST Normal
Marka, Mosjoen 34.2 °F 34 °F 24 °F 66% SV  i  2.5 mph 0.00 tommer / hr 260 ft 10:26 PM CEST Rapid Fire

Show More Stations Show Fewer Stations

What do you think?

We're not finished. Please let us know what you like, what you don't like, and what you are still missing.